createdAt,value
2019-03-08T00:01:47.473Z,5.72
2019-03-08T00:04:16.725Z,5.66
2019-03-08T00:06:45.965Z,5.59
2019-03-08T00:09:16.666Z,5.58
2019-03-08T00:11:48.434Z,5.57
2019-03-08T00:14:21.752Z,5.52
2019-03-08T00:16:50.967Z,5.52
2019-03-08T00:19:23.844Z,5.45
2019-03-08T00:21:53.511Z,5.46
2019-03-08T00:24:22.870Z,5.40
2019-03-08T00:26:53.297Z,5.39
2019-03-08T00:29:22.585Z,5.40
2019-03-08T00:31:52.146Z,5.41
2019-03-08T00:34:22.301Z,5.37
2019-03-08T00:36:54.109Z,5.35
2019-03-08T00:39:23.415Z,5.43
2019-03-08T00:41:56.540Z,5.41
2019-03-08T00:44:25.769Z,5.45
2019-03-08T00:46:54.828Z,5.49
2019-03-08T00:49:27.678Z,5.48
2019-03-08T00:51:58.416Z,5.53
2019-03-08T00:54:28.074Z,5.49
2019-03-08T00:56:57.293Z,5.51
2019-03-08T00:59:26.555Z,5.53
2019-03-08T01:01:55.953Z,5.50
2019-03-08T01:04:27.569Z,5.55
2019-03-08T01:06:58.250Z,5.54
2019-03-08T01:09:36.469Z,5.58
2019-03-08T01:12:05.841Z,5.62
2019-03-08T01:14:35.941Z,5.65
2019-03-08T01:17:05.082Z,5.62
2019-03-08T01:19:37.777Z,5.64
2019-03-08T01:22:07.007Z,5.51
2019-03-08T01:24:37.644Z,5.43
2019-03-08T01:27:07.899Z,5.45
2019-03-08T01:29:37.242Z,5.46
2019-03-08T01:32:06.877Z,5.51
2019-03-08T01:34:36.817Z,5.50
2019-03-08T01:37:06.053Z,5.47
2019-03-08T01:39:35.326Z,5.50
2019-03-08T01:42:13.598Z,5.45
2019-03-08T01:44:43.445Z,5.30
2019-03-08T01:47:13.807Z,5.32
2019-03-08T01:49:43.074Z,5.25
2019-03-08T01:52:12.300Z,5.25
2019-03-08T01:54:41.883Z,5.30
2019-03-08T01:57:12.284Z,5.36
2019-03-08T01:59:42.852Z,5.39
2019-03-08T02:02:14.536Z,5.42
2019-03-08T02:04:47.457Z,5.41
2019-03-08T02:07:21.499Z,5.36
2019-03-08T02:09:51.816Z,5.37
2019-03-08T02:12:22.987Z,5.33
2019-03-08T02:14:53.593Z,5.26
2019-03-08T02:17:22.834Z,5.23
2019-03-08T02:19:57.139Z,5.23
2019-03-08T02:22:26.523Z,5.23
2019-03-08T02:24:56.872Z,5.24
2019-03-08T02:27:25.921Z,5.35
2019-03-08T02:29:55.432Z,5.45
2019-03-08T02:32:24.939Z,5.54
2019-03-08T02:34:54.638Z,5.51
2019-03-08T02:37:23.865Z,5.60
2019-03-08T02:39:54.721Z,5.66
2019-03-08T02:42:24.464Z,5.71
2019-03-08T02:44:58.224Z,5.75
2019-03-08T02:47:29.599Z,5.78
2019-03-08T02:50:01.212Z,5.75
2019-03-08T02:52:31.519Z,5.67
2019-03-08T02:55:02.215Z,5.71
2019-03-08T02:57:32.701Z,5.75
2019-03-08T03:00:02.312Z,5.80
2019-03-08T03:02:31.870Z,5.77
2019-03-08T03:05:02.793Z,5.76
2019-03-08T03:07:32.497Z,5.77
2019-03-08T03:10:03.299Z,5.66
2019-03-08T03:12:32.519Z,5.63
2019-03-08T03:15:01.800Z,5.54
2019-03-08T03:17:31.033Z,5.52
2019-03-08T03:20:00.574Z,5.42
2019-03-08T03:22:30.863Z,5.42
2019-03-08T03:25:02.242Z,5.33
2019-03-08T03:27:40.010Z,5.31
2019-03-08T03:30:14.136Z,5.27
2019-03-08T03:32:45.513Z,5.26
2019-03-08T03:35:17.713Z,5.26
2019-03-08T03:37:47.712Z,5.25
2019-03-08T03:40:17.000Z,5.24
2019-03-08T03:42:49.667Z,5.22
2019-03-08T03:45:19.887Z,5.20
2019-03-08T03:47:51.256Z,5.21
2019-03-08T03:50:21.055Z,5.22
2019-03-08T03:52:51.477Z,5.22
2019-03-08T03:55:20.724Z,5.28
2019-03-08T03:57:52.881Z,5.28
2019-03-08T04:00:22.426Z,5.28
2019-03-08T04:02:52.988Z,5.33
2019-03-08T04:05:24.699Z,5.33
2019-03-08T04:07:54.852Z,5.40
2019-03-08T04:10:24.824Z,5.34
2019-03-08T04:12:57.000Z,5.35
2019-03-08T04:15:27.561Z,5.42
2019-03-08T04:17:57.985Z,5.40
2019-03-08T04:20:36.094Z,5.49
2019-03-08T04:23:05.305Z,5.48
2019-03-08T04:25:35.618Z,5.51
2019-03-08T04:28:05.666Z,5.52
2019-03-08T04:30:35.754Z,5.55
2019-03-08T04:33:10.477Z,5.56
2019-03-08T04:35:39.965Z,5.52
2019-03-08T04:38:09.215Z,5.51
2019-03-08T04:40:42.878Z,5.51
2019-03-08T04:43:14.607Z,5.41
2019-03-08T04:45:44.199Z,5.38
2019-03-08T04:48:13.448Z,5.37
2019-03-08T04:50:42.971Z,5.35
2019-03-08T04:53:14.677Z,5.46
2019-03-08T04:55:43.929Z,5.42
2019-03-08T04:58:13.186Z,5.46
2019-03-08T05:00:42.877Z,5.39
2019-03-08T05:03:12.382Z,5.38
2019-03-08T05:05:41.908Z,5.38
2019-03-08T05:08:13.756Z,5.37
2019-03-08T05:10:45.408Z,5.35
2019-03-08T05:13:14.669Z,5.36
2019-03-08T05:15:46.612Z,5.43
2019-03-08T05:18:15.892Z,5.62
2019-03-08T05:20:46.070Z,5.82
2019-03-08T05:23:17.462Z,5.93
2019-03-08T05:25:46.983Z,5.97
2019-03-08T05:28:16.219Z,5.94
2019-03-08T05:30:45.845Z,5.97
2019-03-08T05:33:17.164Z,5.99
2019-03-08T05:35:46.389Z,6.06
2019-03-08T05:38:16.442Z,6.07
2019-03-08T05:40:46.255Z,6.06
2019-03-08T05:43:20.946Z,5.99
2019-03-08T05:45:50.442Z,5.95
2019-03-08T05:48:19.694Z,5.98
2019-03-08T05:50:51.491Z,5.94
2019-03-08T05:53:22.269Z,5.96
2019-03-08T05:55:51.885Z,5.90
2019-03-08T05:58:22.255Z,5.92
2019-03-08T06:00:51.819Z,5.89
2019-03-08T06:03:21.631Z,5.95
2019-03-08T06:05:52.017Z,6.00
2019-03-08T06:08:21.614Z,6.10
2019-03-08T06:10:51.117Z,6.22
2019-03-08T06:13:20.565Z,6.31
2019-03-08T06:15:50.990Z,6.41
2019-03-08T06:18:21.230Z,6.50
2019-03-08T06:20:50.714Z,6.66
2019-03-08T06:23:20.850Z,6.77
2019-03-08T06:25:50.086Z,6.94
2019-03-08T06:28:23.005Z,7.08
2019-03-08T06:30:52.234Z,7.17
2019-03-08T06:33:23.390Z,7.28
2019-03-08T06:35:55.940Z,7.35
2019-03-08T06:38:25.925Z,7.44
2019-03-08T06:40:58.254Z,7.41
2019-03-08T06:43:31.457Z,7.43
2019-03-08T06:46:03.006Z,7.34
2019-03-08T06:48:34.820Z,7.35
2019-03-08T06:51:05.292Z,7.42
2019-03-08T06:53:34.527Z,7.53
2019-03-08T06:56:04.094Z,7.73
2019-03-08T06:58:58.174Z,7.90
2019-03-08T07:01:33.508Z,8.40
2019-03-08T07:04:04.721Z,9.61
2019-03-08T07:06:34.251Z,10.42
2019-03-08T07:09:05.552Z,11.35
2019-03-08T07:11:36.564Z,11.11
2019-03-08T07:14:05.913Z,10.41
2019-03-08T07:16:37.123Z,9.73
2019-03-08T07:19:07.262Z,9.39
2019-03-08T07:21:52.393Z,9.19
2019-03-08T07:24:48.561Z,9.10
2019-03-08T07:27:39.549Z,9.01
2019-03-08T07:30:28.339Z,8.86
2019-03-08T07:33:28.387Z,8.74
2019-03-08T07:36:19.423Z,8.67
2019-03-08T07:39:13.427Z,8.42
2019-03-08T07:41:52.948Z,8.41
2019-03-08T07:44:53.192Z,8.30
2019-03-08T07:47:56.510Z,8.17
2019-03-08T07:50:44.154Z,8.17
2019-03-08T07:53:44.429Z,8.16
2019-03-08T07:56:39.494Z,8.05
2019-03-08T07:59:26.328Z,8.08
2019-03-08T08:02:10.107Z,8.11
2019-03-08T08:04:49.067Z,8.41
2019-03-08T08:07:42.407Z,8.69
2019-03-08T08:10:37.727Z,8.84
2019-03-08T08:13:20.978Z,8.97
2019-03-08T08:16:20.313Z,8.95
2019-03-08T08:19:16.052Z,9.22
2019-03-08T08:22:04.295Z,10.16
2019-03-08T08:24:52.489Z,10.93
2019-03-08T08:27:40.664Z,10.56
2019-03-08T08:30:22.308Z,10.09
2019-03-08T08:33:13.864Z,9.96
2019-03-08T08:35:51.981Z,9.77
2019-03-08T08:38:35.453Z,9.36
2019-03-08T08:41:21.187Z,9.20
2019-03-08T08:44:16.315Z,9.09
2019-03-08T08:47:07.995Z,9.20
2019-03-08T08:49:54.618Z,9.45
2019-03-08T08:52:43.970Z,9.69
2019-03-08T08:55:28.195Z,9.32
2019-03-08T08:58:34.393Z,9.18
2019-03-08T09:01:28.299Z,9.52
2019-03-08T09:04:16.954Z,9.95
2019-03-08T09:07:07.422Z,9.84
2019-03-08T09:10:01.398Z,9.57
2019-03-08T09:12:59.380Z,10.20
2019-03-08T09:15:46.208Z,10.88
2019-03-08T09:18:34.491Z,11.44
2019-03-08T09:21:12.647Z,11.05
2019-03-08T09:23:53.883Z,10.92
2019-03-08T09:26:56.929Z,10.89
2019-03-08T09:29:41.629Z,10.88
2019-03-08T09:32:30.391Z,10.22
2019-03-08T09:35:09.344Z,10.42
2019-03-08T09:38:17.485Z,10.44
2019-03-08T09:41:08.710Z,10.94
2019-03-08T09:44:14.074Z,11.04
2019-03-08T09:47:16.155Z,11.12
2019-03-08T09:50:02.982Z,10.82
2019-03-08T09:52:48.612Z,11.01
2019-03-08T09:55:35.556Z,11.71
2019-03-08T09:58:32.308Z,12.14
2019-03-08T10:01:17.300Z,12.93
2019-03-08T10:04:13.433Z,13.67
2019-03-08T10:07:13.894Z,13.49
2019-03-08T10:10:08.282Z,13.13
2019-03-08T10:12:43.850Z,11.05
2019-03-08T10:15:31.099Z,10.37
2019-03-08T10:18:22.057Z,9.68
2019-03-08T10:21:06.998Z,9.42
2019-03-08T10:23:46.879Z,9.33
2019-03-08T10:26:51.218Z,9.23
2019-03-08T10:29:36.744Z,9.23
2019-03-08T10:32:24.906Z,9.38
2019-03-08T10:35:20.498Z,9.39
2019-03-08T10:37:51.747Z,9.47
2019-03-08T10:40:44.704Z,9.60
2019-03-08T10:43:32.566Z,11.74
2019-03-08T10:46:19.452Z,13.37
2019-03-08T10:49:09.234Z,12.25
2019-03-08T10:51:50.953Z,10.94
2019-03-08T10:54:40.959Z,10.88
2019-03-08T10:57:17.855Z,11.02
2019-03-08T11:00:13.838Z,10.84
2019-03-08T11:02:54.289Z,10.59
2019-03-08T11:05:54.507Z,10.35
2019-03-08T11:09:02.662Z,10.89
2019-03-08T11:12:06.163Z,10.93
2019-03-08T11:14:54.139Z,11.01
2019-03-08T11:17:50.687Z,11.12
2019-03-08T11:20:27.257Z,10.84
2019-03-08T11:23:21.149Z,10.84
2019-03-08T11:26:09.842Z,13.05
2019-03-08T11:29:14.865Z,13.70
2019-03-08T11:32:03.792Z,13.16
2019-03-08T11:35:22.071Z,13.31
2019-03-08T11:38:07.129Z,13.73
2019-03-08T11:40:55.419Z,14.56
2019-03-08T11:43:48.249Z,15.31
2019-03-08T11:46:56.113Z,14.70
2019-03-08T11:49:37.895Z,14.68
2019-03-08T11:52:32.778Z,14.99
2019-03-08T11:55:24.352Z,15.30
2019-03-08T11:58:16.859Z,15.18
2019-03-08T12:01:12.382Z,15.01
2019-03-08T12:04:00.941Z,14.56
2019-03-08T12:06:43.131Z,14.85
2019-03-08T12:09:41.139Z,14.68
2019-03-08T12:12:32.400Z,14.60
2019-03-08T12:15:21.567Z,14.93
2019-03-08T12:18:19.780Z,14.66
2019-03-08T12:21:08.327Z,13.96
2019-03-08T12:23:55.281Z,13.95
2019-03-08T12:26:46.211Z,14.51
2019-03-08T12:29:34.070Z,14.23
2019-03-08T12:32:23.612Z,14.02
2019-03-08T12:35:12.191Z,14.37
2019-03-08T12:37:57.759Z,14.95
2019-03-08T12:40:35.701Z,14.79
2019-03-08T12:43:25.082Z,15.00
2019-03-08T12:46:14.170Z,14.11
2019-03-08T12:49:18.726Z,13.89
2019-03-08T12:51:56.635Z,13.46
2019-03-08T12:54:56.343Z,14.64
2019-03-08T12:57:51.679Z,13.89
2019-03-08T13:00:38.636Z,13.02
2019-03-08T13:03:25.338Z,12.93
2019-03-08T13:06:17.758Z,13.68
2019-03-08T13:09:08.731Z,14.34
2019-03-08T13:11:38.253Z,14.72
2019-03-08T13:14:07.798Z,16.01
2019-03-08T13:16:37.912Z,16.15
2019-03-08T13:19:10.298Z,15.03
2019-03-08T13:21:41.654Z,14.86
2019-03-08T13:24:12.645Z,14.59
2019-03-08T13:26:44.987Z,14.47
2019-03-08T13:29:14.235Z,13.97
2019-03-08T13:31:43.491Z,14.38
2019-03-08T13:34:17.493Z,14.25
2019-03-08T13:36:48.035Z,14.52
2019-03-08T13:39:18.954Z,14.57
2019-03-08T13:41:48.218Z,14.85
2019-03-08T13:44:21.328Z,14.43
2019-03-08T13:46:50.596Z,14.14
2019-03-08T13:49:21.408Z,13.49
2019-03-08T13:51:52.429Z,13.05
2019-03-08T13:54:21.666Z,12.60
2019-03-08T13:56:52.505Z,12.33
2019-03-08T13:59:23.677Z,12.25
2019-03-08T14:02:00.435Z,12.44
2019-03-08T14:04:30.098Z,13.06
2019-03-08T14:06:59.739Z,13.23
2019-03-08T14:09:31.850Z,13.33
2019-03-08T14:12:01.917Z,14.08
2019-03-08T14:14:31.349Z,14.22
2019-03-08T14:17:00.905Z,14.64
2019-03-08T14:19:33.777Z,14.88
2019-03-08T14:22:03.278Z,14.29
2019-03-08T14:24:32.777Z,13.90
2019-03-08T14:27:04.314Z,13.99
2019-03-08T14:29:36.445Z,14.46
2019-03-08T14:32:27.442Z,14.39
2019-03-08T14:34:58.122Z,14.74
2019-03-08T14:37:27.370Z,14.75
2019-03-08T14:39:56.861Z,15.00
2019-03-08T14:42:40.323Z,14.60
2019-03-08T14:45:17.871Z,14.54
2019-03-08T14:47:51.674Z,14.51
2019-03-08T14:50:23.655Z,13.25
2019-03-08T14:52:56.682Z,12.74
2019-03-08T14:55:27.772Z,12.46
2019-03-08T14:57:58.979Z,12.93
2019-03-08T15:00:30.545Z,13.23
2019-03-08T15:03:02.634Z,13.19
2019-03-08T15:05:32.188Z,13.29
2019-03-08T15:08:01.727Z,12.92
2019-03-08T15:10:39.411Z,12.61
2019-03-08T15:13:06.841Z,12.28
2019-03-08T15:15:44.123Z,12.28
2019-03-08T15:18:14.802Z,12.18
2019-03-08T15:20:44.866Z,12.01
2019-03-08T15:23:20.405Z,12.04
2019-03-08T15:25:51.873Z,12.11
2019-03-08T15:28:21.158Z,12.14
2019-03-08T15:30:51.363Z,12.20
2019-03-08T15:33:20.913Z,12.23
2019-03-08T15:35:51.826Z,12.67
2019-03-08T15:38:22.697Z,12.67
2019-03-08T15:40:51.973Z,12.22
2019-03-08T15:43:22.368Z,12.06
2019-03-08T15:45:54.397Z,12.60
2019-03-08T15:48:24.012Z,13.15
2019-03-08T15:50:56.565Z,13.47
2019-03-08T15:53:26.120Z,13.35
2019-03-08T15:55:59.931Z,13.03
2019-03-08T15:58:30.866Z,12.73
2019-03-08T16:01:02.044Z,12.51
2019-03-08T16:03:33.855Z,12.28
2019-03-08T16:06:06.434Z,12.11
2019-03-08T16:08:39.761Z,11.95
2019-03-08T16:11:09.715Z,11.87
2019-03-08T16:13:52.169Z,11.79
2019-03-08T16:16:21.820Z,11.66
2019-03-08T16:18:52.179Z,11.55
2019-03-08T16:21:21.446Z,11.41
2019-03-08T16:23:51.829Z,11.37
2019-03-08T16:26:25.366Z,11.50
2019-03-08T16:28:57.719Z,11.48
2019-03-08T16:31:48.964Z,11.38
2019-03-08T16:34:24.447Z,11.17
2019-03-08T16:36:58.815Z,11.04
2019-03-08T16:39:34.950Z,10.92
2019-03-08T16:42:21.218Z,10.88
2019-03-08T16:45:08.119Z,11.05
2019-03-08T16:47:54.800Z,11.22
2019-03-08T16:50:56.236Z,11.31
2019-03-08T16:53:47.892Z,11.09
2019-03-08T16:56:44.482Z,10.81
2019-03-08T16:59:43.275Z,10.72
2019-03-08T17:02:32.367Z,10.70
2019-03-08T17:05:21.571Z,10.70
2019-03-08T17:07:59.763Z,10.63
2019-03-08T17:10:48.302Z,10.61
2019-03-08T17:13:53.542Z,10.31
2019-03-08T17:16:42.976Z,9.89
2019-03-08T17:19:30.688Z,9.67
2019-03-08T17:22:19.153Z,9.58
2019-03-08T17:25:10.570Z,9.44
2019-03-08T17:28:02.407Z,9.24
2019-03-08T17:30:46.937Z,9.15
2019-03-08T17:33:31.164Z,9.03
2019-03-08T17:36:32.540Z,9.00
2019-03-08T17:39:20.735Z,8.97
2019-03-08T17:42:12.221Z,8.96
2019-03-08T17:44:56.880Z,8.91
2019-03-08T17:47:50.978Z,8.91
2019-03-08T17:50:46.022Z,8.86
2019-03-08T17:53:35.033Z,8.81
2019-03-08T17:56:26.240Z,8.74
2019-03-08T17:59:17.157Z,8.71
2019-03-08T18:02:14.327Z,8.78
2019-03-08T18:05:04.722Z,8.65
2019-03-08T18:08:08.092Z,8.54
2019-03-08T18:11:09.510Z,8.56
2019-03-08T18:13:55.774Z,8.57
2019-03-08T18:16:48.803Z,8.53
2019-03-08T18:19:29.239Z,8.56
2019-03-08T18:22:05.001Z,8.42
2019-03-08T18:24:54.214Z,8.38
2019-03-08T18:27:46.706Z,8.24
2019-03-08T18:30:52.483Z,8.18
2019-03-08T18:33:34.262Z,8.14
2019-03-08T18:36:22.748Z,8.10
2019-03-08T18:39:10.722Z,7.99
2019-03-08T18:42:01.297Z,8.00
2019-03-08T18:44:43.516Z,7.81
2019-03-08T18:47:33.602Z,7.81
2019-03-08T18:50:40.498Z,7.74
2019-03-08T18:53:33.076Z,7.75
2019-03-08T18:56:30.053Z,7.70
2019-03-08T18:59:07.389Z,7.49
2019-03-08T19:01:56.002Z,7.50
2019-03-08T19:04:47.090Z,7.39
2019-03-08T19:07:37.606Z,7.37
2019-03-08T19:10:29.572Z,7.21
2019-03-08T19:13:11.042Z,7.20
2019-03-08T19:15:53.423Z,7.12
2019-03-08T19:18:34.726Z,7.12
2019-03-08T19:21:39.430Z,7.12
2019-03-08T19:24:17.561Z,7.14
2019-03-08T19:27:25.096Z,7.12
2019-03-08T19:30:19.458Z,7.08
2019-03-08T19:33:13.595Z,6.98
2019-03-08T19:36:02.675Z,6.92
2019-03-08T19:38:57.831Z,6.88
2019-03-08T19:41:49.009Z,6.75
2019-03-08T19:44:35.862Z,6.71
2019-03-08T19:47:23.522Z,6.75
2019-03-08T19:50:14.460Z,6.68
2019-03-08T19:53:09.952Z,6.64
2019-03-08T19:55:57.717Z,6.57
2019-03-08T19:58:39.422Z,6.39
2019-03-08T20:01:26.668Z,6.41
2019-03-08T20:04:06.954Z,6.30
2019-03-08T20:06:59.839Z,6.07
2019-03-08T20:09:45.351Z,5.94
2019-03-08T20:12:21.760Z,6.00
2019-03-08T20:15:14.546Z,6.00
2019-03-08T20:18:07.127Z,5.90
2019-03-08T20:20:59.251Z,5.96
2019-03-08T20:23:44.037Z,5.98
2019-03-08T20:26:26.027Z,5.99
2019-03-08T20:29:14.251Z,5.96
2019-03-08T20:31:59.527Z,5.98
2019-03-08T20:34:57.002Z,5.96
2019-03-08T20:37:36.271Z,5.83
2019-03-08T20:40:28.267Z,5.72
2019-03-08T20:43:11.172Z,5.70
2019-03-08T20:45:48.030Z,5.73
2019-03-08T20:48:17.810Z,5.63
2019-03-08T20:50:47.086Z,5.67
2019-03-08T20:53:17.786Z,5.76
2019-03-08T20:55:49.926Z,5.76
2019-03-08T20:58:19.466Z,5.78
2019-03-08T21:00:54.104Z,5.84
2019-03-08T21:03:25.177Z,5.89
2019-03-08T21:05:56.685Z,5.89
2019-03-08T21:08:29.786Z,5.84
2019-03-08T21:10:59.993Z,5.87
2019-03-08T21:13:29.598Z,5.88
2019-03-08T21:16:00.434Z,5.89
2019-03-08T21:18:29.946Z,5.86
2019-03-08T21:21:02.178Z,5.67
2019-03-08T21:23:33.481Z,5.66
2019-03-08T21:26:11.458Z,5.62
2019-03-08T21:28:41.704Z,5.55
2019-03-08T21:31:13.092Z,5.40
2019-03-08T21:33:52.543Z,5.46
2019-03-08T21:36:21.820Z,5.45
2019-03-08T21:38:51.387Z,5.37
2019-03-08T21:41:21.446Z,5.38
2019-03-08T21:43:51.035Z,5.31
2019-03-08T21:46:20.295Z,5.32
2019-03-08T21:48:49.917Z,5.35
2019-03-08T21:51:19.656Z,5.29
2019-03-08T21:53:50.868Z,5.23
2019-03-08T21:56:20.132Z,4.89
2019-03-08T21:58:51.424Z,4.74
2019-03-08T22:01:20.713Z,4.79
2019-03-08T22:03:57.335Z,4.88
2019-03-08T22:06:27.291Z,4.94
2019-03-08T22:09:05.373Z,4.98
2019-03-08T22:11:39.812Z,4.89
2019-03-08T22:14:14.566Z,4.74
2019-03-08T22:16:43.843Z,4.70
2019-03-08T22:19:13.206Z,4.70
2019-03-08T22:21:44.825Z,4.73
2019-03-08T22:24:17.898Z,4.73
2019-03-08T22:26:48.154Z,4.76
2019-03-08T22:29:17.387Z,4.83
2019-03-08T22:31:47.711Z,4.95
2019-03-08T22:34:18.437Z,5.05
2019-03-08T22:36:48.474Z,5.02
2019-03-08T22:39:17.906Z,5.09
2019-03-08T22:41:47.481Z,5.07
2019-03-08T22:44:17.120Z,5.17
2019-03-08T22:50:27.492Z,5.27
2019-03-08T22:52:58.695Z,5.24
2019-03-08T22:56:33.989Z,5.22
2019-03-08T22:59:03.224Z,5.19
2019-03-08T23:01:57.365Z,5.17
2019-03-08T23:04:26.910Z,5.23
2019-03-08T23:06:56.176Z,5.32
2019-03-08T23:09:31.107Z,5.39
2019-03-08T23:12:01.472Z,5.43
2019-03-08T23:14:32.995Z,5.45
2019-03-08T23:17:03.080Z,5.47
2019-03-08T23:19:32.537Z,5.37
2019-03-08T23:22:03.211Z,5.39
2019-03-08T23:24:33.787Z,5.35
2019-03-08T23:27:21.983Z,5.36
2019-03-08T23:29:54.723Z,5.37
2019-03-08T23:32:27.442Z,5.37
2019-03-08T23:34:57.029Z,5.37
2019-03-08T23:37:30.569Z,5.34
2019-03-08T23:40:02.562Z,5.34
2019-03-08T23:42:32.258Z,5.34
2019-03-08T23:45:01.502Z,5.27
2019-03-08T23:47:35.166Z,5.20
2019-03-08T23:50:06.939Z,5.13
2019-03-08T23:52:38.806Z,5.13
2019-03-08T23:55:08.959Z,5.04
2019-03-08T23:57:39.751Z,5.00
